sensor_id;sensor_type;location;lat;lon;timestamp;temperature;humidity
6738;DHT22;3406;49.902;8.596;2023-10-31T00:00:10;13.40;99.90
6738;DHT22;3406;49.902;8.596;2023-10-31T00:02:37;13.30;99.90
6738;DHT22;3406;49.902;8.596;2023-10-31T00:05:04;13.30;99.90
6738;DHT22;3406;49.902;8.596;2023-10-31T00:07:31;13.30;99.90
6738;DHT22;3406;49.902;8.596;2023-10-31T00:09:58;13.20;99.90
6738;DHT22;3406;49.902;8.596;2023-10-31T00:12:24;13.20;99.90
6738;DHT22;3406;49.902;8.596;2023-10-31T00:14:51;13.10;99.90
6738;DHT22;3406;49.902;8.596;2023-10-31T00:17:19;13.10;99.90
6738;DHT22;3406;49.902;8.596;2023-10-31T00:19:45;13.10;99.90
6738;DHT22;3406;49.902;8.596;2023-10-31T00:22:12;13.00;99.90
6738;DHT22;3406;49.902;8.596;2023-10-31T00:24:39;13.00;99.90
6738;DHT22;3406;49.902;8.596;2023-10-31T00:27:05;12.90;99.90
6738;DHT22;3406;49.902;8.596;2023-10-31T00:29:32;12.90;99.90
6738;DHT22;3406;49.902;8.596;2023-10-31T00:31:59;12.90;99.90
6738;DHT22;3406;49.902;8.596;2023-10-31T00:34:27;12.90;99.90
6738;DHT22;3406;49.902;8.596;2023-10-31T00:36:53;12.90;99.90
6738;DHT22;3406;49.902;8.596;2023-10-31T00:39:20;12.90;99.90
6738;DHT22;3406;49.902;8.596;2023-10-31T00:41:47;12.90;99.90
6738;DHT22;3406;49.902;8.596;2023-10-31T00:44:13;12.90;99.90
6738;DHT22;3406;49.902;8.596;2023-10-31T00:46:40;12.80;99.90
6738;DHT22;3406;49.902;8.596;2023-10-31T00:49:07;12.80;99.90
6738;DHT22;3406;49.902;8.596;2023-10-31T00:51:35;12.80;99.90
6738;DHT22;3406;49.902;8.596;2023-10-31T00:54:01;12.80;99.90
6738;DHT22;3406;49.902;8.596;2023-10-31T00:56:28;12.70;99.90
6738;DHT22;3406;49.902;8.596;2023-10-31T00:58:55;12.70;99.90
6738;DHT22;3406;49.902;8.596;2023-10-31T01:01:21;12.70;99.90
6738;DHT22;3406;49.902;8.596;2023-10-31T01:03:48;12.60;99.90
6738;DHT22;3406;49.902;8.596;2023-10-31T01:06:14;12.60;99.90
6738;DHT22;3406;49.902;8.596;2023-10-31T01:08:43;12.60;99.90
6738;DHT22;3406;49.902;8.596;2023-10-31T01:11:09;12.60;99.90
6738;DHT22;3406;49.902;8.596;2023-10-31T01:13:36;12.60;99.90
6738;DHT22;3406;49.902;8.596;2023-10-31T01:16:03;12.50;99.90
6738;DHT22;3406;49.902;8.596;2023-10-31T01:18:30;12.50;99.90
6738;DHT22;3406;49.902;8.596;2023-10-31T01:20:57;12.50;99.90
6738;DHT22;3406;49.902;8.596;2023-10-31T01:23:23;12.50;99.90
6738;DHT22;3406;49.902;8.596;2023-10-31T01:25:51;12.50;99.90
6738;DHT22;3406;49.902;8.596;2023-10-31T01:28:18;12.40;99.90
6738;DHT22;3406;49.902;8.596;2023-10-31T01:30:45;12.40;99.90
6738;DHT22;3406;49.902;8.596;2023-10-31T01:33:11;12.40;99.90
6738;DHT22;3406;49.902;8.596;2023-10-31T01:35:38;12.30;99.90
6738;DHT22;3406;49.902;8.596;2023-10-31T01:38:05;12.30;99.90
6738;DHT22;3406;49.902;8.596;2023-10-31T01:40:31;12.30;99.90
6738;DHT22;3406;49.902;8.596;2023-10-31T01:42:59;12.20;99.90
6738;DHT22;3406;49.902;8.596;2023-10-31T01:45:25;12.20;99.90
6738;DHT22;3406;49.902;8.596;2023-10-31T01:47:52;12.10;99.90
6738;DHT22;3406;49.902;8.596;2023-10-31T01:50:19;12.10;99.90
6738;DHT22;3406;49.902;8.596;2023-10-31T01:52:46;12.10;99.90
6738;DHT22;3406;49.902;8.596;2023-10-31T01:55:13;12.10;99.90
6738;DHT22;3406;49.902;8.596;2023-10-31T01:57:40;12.10;99.90
6738;DHT22;3406;49.902;8.596;2023-10-31T02:00:10;12.10;99.90
6738;DHT22;3406;49.902;8.596;2023-10-31T02:02:38;12.10;99.90
6738;DHT22;3406;49.902;8.596;2023-10-31T02:05:07;12.10;99.90
6738;DHT22;3406;49.902;8.596;2023-10-31T02:07:33;12.10;99.90
6738;DHT22;3406;49.902;8.596;2023-10-31T02:10:00;12.10;99.90
6738;DHT22;3406;49.902;8.596;2023-10-31T02:12:33;12.00;99.90
6738;DHT22;3406;49.902;8.596;2023-10-31T02:15:00;12.00;99.90
6738;DHT22;3406;49.902;8.596;2023-10-31T02:17:28;12.00;99.90
6738;DHT22;3406;49.902;8.596;2023-10-31T02:19:55;11.90;99.90
6738;DHT22;3406;49.902;8.596;2023-10-31T02:22:23;11.90;99.90
6738;DHT22;3406;49.902;8.596;2023-10-31T02:24:50;11.80;99.90
6738;DHT22;3406;49.902;8.596;2023-10-31T02:27:16;11.80;99.90
6738;DHT22;3406;49.902;8.596;2023-10-31T02:29:43;11.70;99.90
6738;DHT22;3406;49.902;8.596;2023-10-31T02:32:09;11.70;99.90
6738;DHT22;3406;49.902;8.596;2023-10-31T02:34:36;11.70;99.90
6738;DHT22;3406;49.902;8.596;2023-10-31T02:37:03;11.60;99.90
6738;DHT22;3406;49.902;8.596;2023-10-31T02:39:32;11.60;99.90
6738;DHT22;3406;49.902;8.596;2023-10-31T02:41:58;11.50;99.90
6738;DHT22;3406;49.902;8.596;2023-10-31T02:44:25;11.50;99.90
6738;DHT22;3406;49.902;8.596;2023-10-31T02:46:52;11.50;99.90
6738;DHT22;3406;49.902;8.596;2023-10-31T02:49:19;11.40;99.90
6738;DHT22;3406;49.902;8.596;2023-10-31T02:51:45;11.40;99.90
6738;DHT22;3406;49.902;8.596;2023-10-31T02:54:12;11.40;99.90
6738;DHT22;3406;49.902;8.596;2023-10-31T02:56:40;11.40;99.90
6738;DHT22;3406;49.902;8.596;2023-10-31T02:59:07;11.40;99.90
6738;DHT22;3406;49.902;8.596;2023-10-31T03:01:34;11.40;99.90
6738;DHT22;3406;49.902;8.596;2023-10-31T03:04:01;11.30;99.90
6738;DHT22;3406;49.902;8.596;2023-10-31T03:06:28;11.40;99.90
6738;DHT22;3406;49.902;8.596;2023-10-31T03:08:54;11.30;99.90
6738;DHT22;3406;49.902;8.596;2023-10-31T03:11:22;11.40;99.90
6738;DHT22;3406;49.902;8.596;2023-10-31T03:13:50;11.40;99.90
6738;DHT22;3406;49.902;8.596;2023-10-31T03:16:17;11.30;99.90
6738;DHT22;3406;49.902;8.596;2023-10-31T03:18:43;11.30;99.90
6738;DHT22;3406;49.902;8.596;2023-10-31T03:21:10;11.40;99.90
6738;DHT22;3406;49.902;8.596;2023-10-31T03:23:36;11.40;99.90
6738;DHT22;3406;49.902;8.596;2023-10-31T03:26:03;11.30;99.90
6738;DHT22;3406;49.902;8.596;2023-10-31T03:28:30;11.30;99.90
6738;DHT22;3406;49.902;8.596;2023-10-31T03:30:58;11.30;99.90
6738;DHT22;3406;49.902;8.596;2023-10-31T03:33:24;11.30;99.90
6738;DHT22;3406;49.902;8.596;2023-10-31T03:35:51;11.40;99.90
6738;DHT22;3406;49.902;8.596;2023-10-31T03:38:18;11.30;99.90
6738;DHT22;3406;49.902;8.596;2023-10-31T03:40:44;11.40;99.90
6738;DHT22;3406;49.902;8.596;2023-10-31T03:43:11;11.40;99.90
6738;DHT22;3406;49.902;8.596;2023-10-31T03:45:38;11.40;99.90
6738;DHT22;3406;49.902;8.596;2023-10-31T03:48:06;11.40;99.90
6738;DHT22;3406;49.902;8.596;2023-10-31T03:50:32;11.40;99.90
6738;DHT22;3406;49.902;8.596;2023-10-31T03:52:59;11.40;99.90
6738;DHT22;3406;49.902;8.596;2023-10-31T03:55:25;11.50;99.90
6738;DHT22;3406;49.902;8.596;2023-10-31T03:57:52;11.50;99.90
6738;DHT22;3406;49.902;8.596;2023-10-31T04:00:19;11.50;99.90
6738;DHT22;3406;49.902;8.596;2023-10-31T04:02:45;11.50;99.90
6738;DHT22;3406;49.902;8.596;2023-10-31T04:05:13;11.50;99.90
6738;DHT22;3406;49.902;8.596;2023-10-31T04:07:40;11.50;99.90
6738;DHT22;3406;49.902;8.596;2023-10-31T04:10:08;11.50;99.90
6738;DHT22;3406;49.902;8.596;2023-10-31T04:12:35;11.50;99.90
6738;DHT22;3406;49.902;8.596;2023-10-31T04:15:01;11.50;99.90
6738;DHT22;3406;49.902;8.596;2023-10-31T04:17:28;11.50;99.90
6738;DHT22;3406;49.902;8.596;2023-10-31T04:19:55;11.50;99.90
6738;DHT22;3406;49.902;8.596;2023-10-31T04:22:23;11.50;99.90
6738;DHT22;3406;49.902;8.596;2023-10-31T04:24:49;11.60;99.90
6738;DHT22;3406;49.902;8.596;2023-10-31T04:27:16;11.60;99.90
6738;DHT22;3406;49.902;8.596;2023-10-31T04:29:44;11.60;99.90
6738;DHT22;3406;49.902;8.596;2023-10-31T04:32:11;11.60;99.90
6738;DHT22;3406;49.902;8.596;2023-10-31T04:34:38;11.60;99.90
6738;DHT22;3406;49.902;8.596;2023-10-31T04:37:05;11.60;99.90
6738;DHT22;3406;49.902;8.596;2023-10-31T04:39:33;11.70;99.90
6738;DHT22;3406;49.902;8.596;2023-10-31T04:41:59;11.70;99.90
6738;DHT22;3406;49.902;8.596;2023-10-31T04:44:26;11.70;99.90
6738;DHT22;3406;49.902;8.596;2023-10-31T04:46:53;11.80;99.90
6738;DHT22;3406;49.902;8.596;2023-10-31T04:49:19;11.80;99.90
6738;DHT22;3406;49.902;8.596;2023-10-31T04:51:47;11.80;99.90
6738;DHT22;3406;49.902;8.596;2023-10-31T04:54:14;11.80;99.90
6738;DHT22;3406;49.902;8.596;2023-10-31T04:56:42;11.80;99.90
6738;DHT22;3406;49.902;8.596;2023-10-31T04:59:09;11.80;99.90
6738;DHT22;3406;49.902;8.596;2023-10-31T05:01:35;11.80;99.90
6738;DHT22;3406;49.902;8.596;2023-10-31T05:04:03;11.80;99.90
6738;DHT22;3406;49.902;8.596;2023-10-31T05:06:29;11.80;99.90
6738;DHT22;3406;49.902;8.596;2023-10-31T05:08:56;11.80;99.90
6738;DHT22;3406;49.902;8.596;2023-10-31T05:11:22;11.80;99.90
6738;DHT22;3406;49.902;8.596;2023-10-31T05:13:50;11.80;99.90
6738;DHT22;3406;49.902;8.596;2023-10-31T05:16:17;11.80;99.90
6738;DHT22;3406;49.902;8.596;2023-10-31T05:18:44;11.80;99.90
6738;DHT22;3406;49.902;8.596;2023-10-31T05:21:11;11.80;99.90
6738;DHT22;3406;49.902;8.596;2023-10-31T05:23:37;11.80;99.90
6738;DHT22;3406;49.902;8.596;2023-10-31T05:26:05;11.80;99.90
6738;DHT22;3406;49.902;8.596;2023-10-31T05:28:32;11.80;99.90
6738;DHT22;3406;49.902;8.596;2023-10-31T05:31:00;11.80;99.90
6738;DHT22;3406;49.902;8.596;2023-10-31T05:33:26;11.80;99.90
6738;DHT22;3406;49.902;8.596;2023-10-31T05:35:53;11.80;99.90
6738;DHT22;3406;49.902;8.596;2023-10-31T05:38:20;11.80;99.90
6738;DHT22;3406;49.902;8.596;2023-10-31T05:40:46;11.80;99.90
6738;DHT22;3406;49.902;8.596;2023-10-31T05:43:13;11.80;99.90
6738;DHT22;3406;49.902;8.596;2023-10-31T05:45:40;11.80;99.90
6738;DHT22;3406;49.902;8.596;2023-10-31T05:48:08;11.80;99.90
6738;DHT22;3406;49.902;8.596;2023-10-31T05:50:34;11.80;99.90
6738;DHT22;3406;49.902;8.596;2023-10-31T05:53:01;11.80;99.90
6738;DHT22;3406;49.902;8.596;2023-10-31T05:55:27;11.80;99.90
6738;DHT22;3406;49.902;8.596;2023-10-31T05:57:54;11.80;99.90
6738;DHT22;3406;49.902;8.596;2023-10-31T06:00:22;11.80;99.90
6738;DHT22;3406;49.902;8.596;2023-10-31T06:02:48;11.80;99.90
6738;DHT22;3406;49.902;8.596;2023-10-31T06:05:16;11.80;99.90
6738;DHT22;3406;49.902;8.596;2023-10-31T06:07:43;11.80;99.90
6738;DHT22;3406;49.902;8.596;2023-10-31T06:10:10;11.80;99.90
6738;DHT22;3406;49.902;8.596;2023-10-31T06:12:36;11.80;99.90
6738;DHT22;3406;49.902;8.596;2023-10-31T06:15:03;11.80;99.90
6738;DHT22;3406;49.902;8.596;2023-10-31T06:17:30;11.80;99.90
6738;DHT22;3406;49.902;8.596;2023-10-31T06:19:59;11.80;99.90
6738;DHT22;3406;49.902;8.596;2023-10-31T06:22:27;11.80;99.90
6738;DHT22;3406;49.902;8.596;2023-10-31T06:24:53;11.80;99.80
6738;DHT22;3406;49.902;8.596;2023-10-31T06:27:20;11.80;99.70
6738;DHT22;3406;49.902;8.596;2023-10-31T06:29:46;11.80;99.70
6738;DHT22;3406;49.902;8.596;2023-10-31T06:32:13;11.80;99.60
6738;DHT22;3406;49.902;8.596;2023-10-31T06:34:40;11.80;99.50
6738;DHT22;3406;49.902;8.596;2023-10-31T06:37:06;11.80;99.40
6738;DHT22;3406;49.902;8.596;2023-10-31T06:39:34;11.70;99.20
6738;DHT22;3406;49.902;8.596;2023-10-31T06:42:01;11.80;99.10
6738;DHT22;3406;49.902;8.596;2023-10-31T06:44:28;11.80;99.00
6738;DHT22;3406;49.902;8.596;2023-10-31T06:46:54;11.80;98.90
6738;DHT22;3406;49.902;8.596;2023-10-31T06:49:21;11.80;98.80
6738;DHT22;3406;49.902;8.596;2023-10-31T06:51:49;11.80;98.70
6738;DHT22;3406;49.902;8.596;2023-10-31T06:54:15;11.80;98.70
6738;DHT22;3406;49.902;8.596;2023-10-31T06:56:43;11.80;98.60
6738;DHT22;3406;49.902;8.596;2023-10-31T06:59:10;11.80;98.50
6738;DHT22;3406;49.902;8.596;2023-10-31T07:01:37;11.80;98.40
6738;DHT22;3406;49.902;8.596;2023-10-31T07:04:04;11.80;98.30
6738;DHT22;3406;49.902;8.596;2023-10-31T07:06:31;11.80;98.30
6738;DHT22;3406;49.902;8.596;2023-10-31T07:08:57;11.80;98.30
6738;DHT22;3406;49.902;8.596;2023-10-31T07:11:26;11.80;98.20
6738;DHT22;3406;49.902;8.596;2023-10-31T07:13:53;11.80;98.10
6738;DHT22;3406;49.902;8.596;2023-10-31T07:16:20;11.80;98.10
6738;DHT22;3406;49.902;8.596;2023-10-31T07:18:47;11.80;98.00
6738;DHT22;3406;49.902;8.596;2023-10-31T07:21:13;11.80;97.90
6738;DHT22;3406;49.902;8.596;2023-10-31T07:23:40;11.70;97.80
6738;DHT22;3406;49.902;8.596;2023-10-31T07:26:07;11.70;97.80
6738;DHT22;3406;49.902;8.596;2023-10-31T07:28:33;11.70;97.70
6738;DHT22;3406;49.902;8.596;2023-10-31T07:31:02;11.70;97.60
6738;DHT22;3406;49.902;8.596;2023-10-31T07:33:29;11.70;97.60
6738;DHT22;3406;49.902;8.596;2023-10-31T07:35:55;11.70;97.60
6738;DHT22;3406;49.902;8.596;2023-10-31T07:38:22;11.70;97.60
6738;DHT22;3406;49.902;8.596;2023-10-31T07:40:49;11.70;97.50
6738;DHT22;3406;49.902;8.596;2023-10-31T07:43:15;11.70;97.40
6738;DHT22;3406;49.902;8.596;2023-10-31T07:45:42;11.70;97.40
6738;DHT22;3406;49.902;8.596;2023-10-31T07:48:10;11.70;97.40
6738;DHT22;3406;49.902;8.596;2023-10-31T07:50:37;11.80;97.40
6738;DHT22;3406;49.902;8.596;2023-10-31T07:53:03;11.70;97.30
6738;DHT22;3406;49.902;8.596;2023-10-31T07:55:30;11.70;97.30
6738;DHT22;3406;49.902;8.596;2023-10-31T07:57:57;11.70;97.30
6738;DHT22;3406;49.902;8.596;2023-10-31T08:00:23;11.80;97.30
6738;DHT22;3406;49.902;8.596;2023-10-31T08:02:50;11.80;97.20
6738;DHT22;3406;49.902;8.596;2023-10-31T08:05:18;11.80;97.20
6738;DHT22;3406;49.902;8.596;2023-10-31T08:07:45;11.80;97.20
6738;DHT22;3406;49.902;8.596;2023-10-31T08:10:11;11.80;97.20
6738;DHT22;3406;49.902;8.596;2023-10-31T08:12:38;11.90;97.10
6738;DHT22;3406;49.902;8.596;2023-10-31T08:15:05;11.90;97.10
6738;DHT22;3406;49.902;8.596;2023-10-31T08:17:32;11.90;97.10
6738;DHT22;3406;49.902;8.596;2023-10-31T08:19:59;12.00;97.10
6738;DHT22;3406;49.902;8.596;2023-10-31T08:22:27;12.00;97.00
6738;DHT22;3406;49.902;8.596;2023-10-31T08:24:53;12.00;96.90
6738;DHT22;3406;49.902;8.596;2023-10-31T08:27:20;12.10;97.00
6738;DHT22;3406;49.902;8.596;2023-10-31T08:29:47;12.10;96.90
6738;DHT22;3406;49.902;8.596;2023-10-31T08:32:13;12.10;96.80
6738;DHT22;3406;49.902;8.596;2023-10-31T08:34:40;12.10;96.80
6738;DHT22;3406;49.902;8.596;2023-10-31T08:37:06;12.20;96.70
6738;DHT22;3406;49.902;8.596;2023-10-31T08:39:34;12.20;96.70
6738;DHT22;3406;49.902;8.596;2023-10-31T08:42:01;12.20;96.70
6738;DHT22;3406;49.902;8.596;2023-10-31T08:44:28;12.30;96.70
6738;DHT22;3406;49.902;8.596;2023-10-31T08:46:54;12.30;96.70
6738;DHT22;3406;49.902;8.596;2023-10-31T08:49:21;12.30;96.60
6738;DHT22;3406;49.902;8.596;2023-10-31T08:51:48;12.40;96.60
6738;DHT22;3406;49.902;8.596;2023-10-31T08:54:14;12.40;96.50
6738;DHT22;3406;49.902;8.596;2023-10-31T08:56:42;12.50;96.40
6738;DHT22;3406;49.902;8.596;2023-10-31T08:59:09;12.50;96.30
6738;DHT22;3406;49.902;8.596;2023-10-31T09:01:36;12.60;96.50
6738;DHT22;3406;49.902;8.596;2023-10-31T09:04:03;12.70;96.20
6738;DHT22;3406;49.902;8.596;2023-10-31T09:06:29;12.80;96.00
6738;DHT22;3406;49.902;8.596;2023-10-31T09:08:56;12.80;95.70
6738;DHT22;3406;49.902;8.596;2023-10-31T09:11:22;12.70;95.30
6738;DHT22;3406;49.902;8.596;2023-10-31T09:13:50;12.80;95.10
6738;DHT22;3406;49.902;8.596;2023-10-31T09:16:17;12.80;95.00
6738;DHT22;3406;49.902;8.596;2023-10-31T09:18:44;12.80;94.80
6738;DHT22;3406;49.902;8.596;2023-10-31T09:21:12;12.80;94.60
6738;DHT22;3406;49.902;8.596;2023-10-31T09:23:39;12.90;94.70
6738;DHT22;3406;49.902;8.596;2023-10-31T09:26:05;12.90;94.60
6738;DHT22;3406;49.902;8.596;2023-10-31T09:28:32;12.90;94.40
6738;DHT22;3406;49.902;8.596;2023-10-31T09:31:00;13.00;94.40
6738;DHT22;3406;49.902;8.596;2023-10-31T09:33:27;13.00;94.30
6738;DHT22;3406;49.902;8.596;2023-10-31T09:35:53;13.00;94.20
6738;DHT22;3406;49.902;8.596;2023-10-31T09:38:20;13.10;93.90
6738;DHT22;3406;49.902;8.596;2023-10-31T09:40:47;13.10;93.70
6738;DHT22;3406;49.902;8.596;2023-10-31T09:43:13;13.10;93.50
6738;DHT22;3406;49.902;8.596;2023-10-31T09:45:40;13.10;93.20
6738;DHT22;3406;49.902;8.596;2023-10-31T09:48:09;13.20;92.90
6738;DHT22;3406;49.902;8.596;2023-10-31T09:50:36;13.20;92.30
6738;DHT22;3406;49.902;8.596;2023-10-31T09:53:04;13.10;91.90
6738;DHT22;3406;49.902;8.596;2023-10-31T09:55:32;13.10;91.70
6738;DHT22;3406;49.902;8.596;2023-10-31T09:57:59;13.10;91.50
6738;DHT22;3406;49.902;8.596;2023-10-31T10:00:25;13.10;91.40
6738;DHT22;3406;49.902;8.596;2023-10-31T10:02:52;13.10;91.30
6738;DHT22;3406;49.902;8.596;2023-10-31T10:05:23;13.10;91.30
6738;DHT22;3406;49.902;8.596;2023-10-31T10:07:49;13.10;91.10
6738;DHT22;3406;49.902;8.596;2023-10-31T10:10:17;13.10;90.90
6738;DHT22;3406;49.902;8.596;2023-10-31T10:12:43;13.10;90.90
6738;DHT22;3406;49.902;8.596;2023-10-31T10:15:10;13.20;90.90
6738;DHT22;3406;49.902;8.596;2023-10-31T10:17:38;13.30;91.00
6738;DHT22;3406;49.902;8.596;2023-10-31T10:20:06;13.30;90.90
6738;DHT22;3406;49.902;8.596;2023-10-31T10:22:37;13.30;90.80
6738;DHT22;3406;49.902;8.596;2023-10-31T10:25:06;13.40;90.60
6738;DHT22;3406;49.902;8.596;2023-10-31T10:27:32;13.40;90.60
6738;DHT22;3406;49.902;8.596;2023-10-31T10:29:59;13.50;90.40
6738;DHT22;3406;49.902;8.596;2023-10-31T10:32:26;13.50;90.10
6738;DHT22;3406;49.902;8.596;2023-10-31T10:34:53;13.50;89.80
6738;DHT22;3406;49.902;8.596;2023-10-31T10:37:21;13.50;89.60
6738;DHT22;3406;49.902;8.596;2023-10-31T10:39:51;13.60;88.90
6738;DHT22;3406;49.902;8.596;2023-10-31T10:42:25;13.60;88.30
6738;DHT22;3406;49.902;8.596;2023-10-31T10:44:58;13.60;87.60
6738;DHT22;3406;49.902;8.596;2023-10-31T10:47:28;13.70;87.30
6738;DHT22;3406;49.902;8.596;2023-10-31T10:49:58;13.70;86.80
6738;DHT22;3406;49.902;8.596;2023-10-31T10:52:28;13.70;86.70
6738;DHT22;3406;49.902;8.596;2023-10-31T10:55:03;13.80;86.60
6738;DHT22;3406;49.902;8.596;2023-10-31T10:57:37;13.80;86.40
6738;DHT22;3406;49.902;8.596;2023-10-31T11:00:05;13.80;86.00
6738;DHT22;3406;49.902;8.596;2023-10-31T11:02:35;13.80;85.30
6738;DHT22;3406;49.902;8.596;2023-10-31T11:05:02;13.90;85.30
6738;DHT22;3406;49.902;8.596;2023-10-31T11:07:32;13.90;85.30
6738;DHT22;3406;49.902;8.596;2023-10-31T11:10:02;14.00;85.30
6738;DHT22;3406;49.902;8.596;2023-10-31T11:12:30;14.10;85.10
6738;DHT22;3406;49.902;8.596;2023-10-31T11:14:58;14.20;85.50
6738;DHT22;3406;49.902;8.596;2023-10-31T11:17:28;14.30;84.80
6738;DHT22;3406;49.902;8.596;2023-10-31T11:19:56;14.40;84.10
6738;DHT22;3406;49.902;8.596;2023-10-31T11:22:23;14.30;83.10
6738;DHT22;3406;49.902;8.596;2023-10-31T11:24:50;14.30;82.70
6738;DHT22;3406;49.902;8.596;2023-10-31T11:27:18;14.30;82.50
6738;DHT22;3406;49.902;8.596;2023-10-31T11:29:45;14.40;82.50
6738;DHT22;3406;49.902;8.596;2023-10-31T11:32:14;14.40;82.00
6738;DHT22;3406;49.902;8.596;2023-10-31T11:34:41;14.40;81.40
6738;DHT22;3406;49.902;8.596;2023-10-31T11:37:25;14.50;81.30
6738;DHT22;3406;49.902;8.596;2023-10-31T11:42:57;14.60;80.50
6738;DHT22;3406;49.902;8.596;2023-10-31T11:45:29;14.60;80.30
6738;DHT22;3406;49.902;8.596;2023-10-31T11:47:56;14.60;80.00
6738;DHT22;3406;49.902;8.596;2023-10-31T11:50:23;14.60;79.80
6738;DHT22;3406;49.902;8.596;2023-10-31T11:53:04;14.70;79.80
6738;DHT22;3406;49.902;8.596;2023-10-31T11:55:32;14.70;79.80
6738;DHT22;3406;49.902;8.596;2023-10-31T11:58:13;14.70;79.30
6738;DHT22;3406;49.902;8.596;2023-10-31T12:00:40;14.70;79.30
6738;DHT22;3406;49.902;8.596;2023-10-31T12:03:07;14.70;79.30
6738;DHT22;3406;49.902;8.596;2023-10-31T12:05:34;14.70;79.00
6738;DHT22;3406;49.902;8.596;2023-10-31T12:08:01;14.80;79.10
6738;DHT22;3406;49.902;8.596;2023-10-31T12:10:28;14.80;78.80
6738;DHT22;3406;49.902;8.596;2023-10-31T12:12:57;14.80;78.70
6738;DHT22;3406;49.902;8.596;2023-10-31T12:15:26;14.90;78.90
6738;DHT22;3406;49.902;8.596;2023-10-31T12:17:57;14.90;78.30
6738;DHT22;3406;49.902;8.596;2023-10-31T12:20:23;14.90;78.10
6738;DHT22;3406;49.902;8.596;2023-10-31T12:23:01;14.90;77.70
6738;DHT22;3406;49.902;8.596;2023-10-31T12:25:28;14.90;78.20
6738;DHT22;3406;49.902;8.596;2023-10-31T12:27:57;14.90;77.40
6738;DHT22;3406;49.902;8.596;2023-10-31T12:30:25;15.00;77.50
6738;DHT22;3406;49.902;8.596;2023-10-31T12:32:54;15.10;77.60
6738;DHT22;3406;49.902;8.596;2023-10-31T12:35:23;15.20;77.10
6738;DHT22;3406;49.902;8.596;2023-10-31T12:37:50;15.40;76.80
6738;DHT22;3406;49.902;8.596;2023-10-31T12:40:18;15.40;76.70
6738;DHT22;3406;49.902;8.596;2023-10-31T12:42:46;15.50;76.40
6738;DHT22;3406;49.902;8.596;2023-10-31T12:45:13;15.40;76.80
6738;DHT22;3406;49.902;8.596;2023-10-31T12:47:42;15.40;76.10
6738;DHT22;3406;49.902;8.596;2023-10-31T12:50:11;15.40;76.10
6738;DHT22;3406;49.902;8.596;2023-10-31T12:52:48;15.30;76.00
6738;DHT22;3406;49.902;8.596;2023-10-31T12:55:15;15.30;76.10
6738;DHT22;3406;49.902;8.596;2023-10-31T12:57:42;15.30;75.60
6738;DHT22;3406;49.902;8.596;2023-10-31T13:00:10;15.30;75.80
6738;DHT22;3406;49.902;8.596;2023-10-31T13:02:38;15.30;76.00
6738;DHT22;3406;49.902;8.596;2023-10-31T13:05:10;15.30;75.90
6738;DHT22;3406;49.902;8.596;2023-10-31T13:07:37;15.40;75.80
6738;DHT22;3406;49.902;8.596;2023-10-31T13:10:04;15.40;75.20
6738;DHT22;3406;49.902;8.596;2023-10-31T13:12:31;15.50;75.10
6738;DHT22;3406;49.902;8.596;2023-10-31T13:14:58;15.50;74.70
6738;DHT22;3406;49.902;8.596;2023-10-31T13:17:26;15.50;74.80
6738;DHT22;3406;49.902;8.596;2023-10-31T13:19:53;15.50;74.50
6738;DHT22;3406;49.902;8.596;2023-10-31T13:22:21;15.40;74.20
6738;DHT22;3406;49.902;8.596;2023-10-31T13:24:47;15.40;74.20
6738;DHT22;3406;49.902;8.596;2023-10-31T13:27:14;15.30;74.20
6738;DHT22;3406;49.902;8.596;2023-10-31T13:29:42;15.20;74.20
6738;DHT22;3406;49.902;8.596;2023-10-31T13:32:09;15.10;74.30
6738;DHT22;3406;49.902;8.596;2023-10-31T13:34:35;15.10;74.50
6738;DHT22;3406;49.902;8.596;2023-10-31T13:37:02;15.10;74.70
6738;DHT22;3406;49.902;8.596;2023-10-31T13:39:30;15.10;74.80
6738;DHT22;3406;49.902;8.596;2023-10-31T13:41:57;15.10;75.00
6738;DHT22;3406;49.902;8.596;2023-10-31T13:44:23;15.10;75.00
6738;DHT22;3406;49.902;8.596;2023-10-31T13:46:50;15.20;75.00
6738;DHT22;3406;49.902;8.596;2023-10-31T13:49:17;15.20;75.00
6738;DHT22;3406;49.902;8.596;2023-10-31T13:51:43;15.20;75.00
6738;DHT22;3406;49.902;8.596;2023-10-31T13:54:10;15.20;74.90
6738;DHT22;3406;49.902;8.596;2023-10-31T13:56:38;15.20;74.80
6738;DHT22;3406;49.902;8.596;2023-10-31T13:59:04;15.30;74.90
6738;DHT22;3406;49.902;8.596;2023-10-31T14:01:31;15.40;74.70
6738;DHT22;3406;49.902;8.596;2023-10-31T14:03:58;15.40;74.40
6738;DHT22;3406;49.902;8.596;2023-10-31T14:06:24;15.50;74.30
6738;DHT22;3406;49.902;8.596;2023-10-31T14:08:55;15.50;74.20
6738;DHT22;3406;49.902;8.596;2023-10-31T14:11:22;15.40;74.00
6738;DHT22;3406;49.902;8.596;2023-10-31T14:13:50;15.40;73.80
6738;DHT22;3406;49.902;8.596;2023-10-31T14:16:17;15.40;74.00
6738;DHT22;3406;49.902;8.596;2023-10-31T14:18:44;15.40;74.00
6738;DHT22;3406;49.902;8.596;2023-10-31T14:21:11;15.40;74.00
6738;DHT22;3406;49.902;8.596;2023-10-31T14:23:38;15.40;73.90
6738;DHT22;3406;49.902;8.596;2023-10-31T14:26:05;15.40;73.80
6738;DHT22;3406;49.902;8.596;2023-10-31T14:28:31;15.40;73.80
6738;DHT22;3406;49.902;8.596;2023-10-31T14:30:59;15.30;74.00
6738;DHT22;3406;49.902;8.596;2023-10-31T14:33:26;15.40;74.30
6738;DHT22;3406;49.902;8.596;2023-10-31T14:35:53;15.40;74.20
6738;DHT22;3406;49.902;8.596;2023-10-31T14:38:20;15.40;74.20
6738;DHT22;3406;49.902;8.596;2023-10-31T14:40:47;15.40;74.20
6738;DHT22;3406;49.902;8.596;2023-10-31T14:43:13;15.30;74.10
6738;DHT22;3406;49.902;8.596;2023-10-31T14:45:43;15.20;73.90
6738;DHT22;3406;49.902;8.596;2023-10-31T14:48:11;15.10;73.70
6738;DHT22;3406;49.902;8.596;2023-10-31T14:50:38;15.10;73.50
6738;DHT22;3406;49.902;8.596;2023-10-31T14:53:05;15.00;73.10
6738;DHT22;3406;49.902;8.596;2023-10-31T14:55:32;14.90;73.00
6738;DHT22;3406;49.902;8.596;2023-10-31T14:57:58;14.90;73.20
6738;DHT22;3406;49.902;8.596;2023-10-31T15:00:25;14.80;73.40
6738;DHT22;3406;49.902;8.596;2023-10-31T15:02:51;14.80;73.70
6738;DHT22;3406;49.902;8.596;2023-10-31T15:05:19;14.80;74.00
6738;DHT22;3406;49.902;8.596;2023-10-31T15:07:46;14.70;74.30
6738;DHT22;3406;49.902;8.596;2023-10-31T15:10:13;14.70;74.60
6738;DHT22;3406;49.902;8.596;2023-10-31T15:12:39;14.70;74.90
6738;DHT22;3406;49.902;8.596;2023-10-31T15:15:07;14.70;75.20
6738;DHT22;3406;49.902;8.596;2023-10-31T15:17:34;14.60;76.00
6738;DHT22;3406;49.902;8.596;2023-10-31T15:20:01;14.60;75.50
6738;DHT22;3406;49.902;8.596;2023-10-31T15:22:29;14.70;75.90
6738;DHT22;3406;49.902;8.596;2023-10-31T15:24:56;14.60;76.00
6738;DHT22;3406;49.902;8.596;2023-10-31T15:27:23;14.60;76.20
6738;DHT22;3406;49.902;8.596;2023-10-31T15:29:49;14.50;76.30
6738;DHT22;3406;49.902;8.596;2023-10-31T15:32:16;14.50;76.60
6738;DHT22;3406;49.902;8.596;2023-10-31T15:34:43;14.50;76.80
6738;DHT22;3406;49.902;8.596;2023-10-31T15:37:09;14.50;77.00
6738;DHT22;3406;49.902;8.596;2023-10-31T15:39:38;14.40;77.10
6738;DHT22;3406;49.902;8.596;2023-10-31T15:42:06;14.40;77.30
6738;DHT22;3406;49.902;8.596;2023-10-31T15:44:33;14.40;77.40
6738;DHT22;3406;49.902;8.596;2023-10-31T15:47:00;14.30;77.50
6738;DHT22;3406;49.902;8.596;2023-10-31T15:49:27;14.30;77.70
6738;DHT22;3406;49.902;8.596;2023-10-31T15:51:53;14.30;77.90
6738;DHT22;3406;49.902;8.596;2023-10-31T15:54:20;14.30;78.10
6738;DHT22;3406;49.902;8.596;2023-10-31T15:56:48;14.30;78.30
6738;DHT22;3406;49.902;8.596;2023-10-31T15:59:15;14.20;78.30
6738;DHT22;3406;49.902;8.596;2023-10-31T16:01:42;14.20;78.50
6738;DHT22;3406;49.902;8.596;2023-10-31T16:04:09;14.20;78.80